This is the latest recevied weather packets stored in our database for station/object OK1FET-14. If no packets are shown the sender has not sent any weather packets the latest 10 day(s).
| Time | Temp. | Humidity | Pressure | Rain* | Wind** | Luminosity | Snow |
|---|---|---|---|---|---|---|---|
| 1788685246 | 18.33° C | 49% | 1029.5 hPa | - | - | - | - |
| 1788684944 | 17.78° C | 54% | 1029.6 hPa | - | - | - | - |
| 1788684944 | 17.78° C | 54% | 1029.6 hPa | - | - | - | - |
| 1788684944 | 17.78° C | 54% | 1029.6 hPa | - | - | - | - |
| 1788684663 | 16.67° C | 55% | 1029.6 hPa | - | - | - | - |
| 1788684663 | 16.67° C | 55% | 1029.6 hPa | - | - | - | - |
| 1788684663 | 16.67° C | 55% | 1029.6 hPa | - | - | - | - |
| 1788684382 | 17.78° C | 55% | 1029.6 hPa | - | - | - | - |
| 1788684382 | 17.78° C | 55% | 1029.6 hPa | - | - | - | - |
| 1788684382 | 17.78° C | 55% | 1029.6 hPa | - | - | - | - |
| 1788684101 | 18.33° C | 51% | 1029.6 hPa | - | - | - | - |
| 1788684101 | 18.33° C | 51% | 1029.6 hPa | - | - | - | - |
| 1788683820 | 17.22° C | 57% | 1029.6 hPa | - | - | - | - |
| 1788683820 | 17.22° C | 57% | 1029.6 hPa | - | - | - | - |
| 1788683820 | 17.22° C | 57% | 1029.6 hPa | - | - | - | - |
| 1788683540 | 16.11° C | 57% | 1029.5 hPa | - | - | - | - |
| 1788683540 | 16.11° C | 57% | 1029.5 hPa | - | - | - | - |
| 1788683540 | 16.11° C | 57% | 1029.5 hPa | - | - | - | - |
| 1788683259 | 15.56° C | 60% | 1029.5 hPa | - | - | - | - |
| 1788683259 | 15.56° C | 60% | 1029.5 hPa | - | - | - | - |
| 1788683259 | 15.56° C | 60% | 1029.5 hPa | - | - | - | - |
| 1788682978 | 14.44° C | 63% | 1029.6 hPa | - | - | - | - |
| 1788682978 | 14.44° C | 63% | 1029.6 hPa | - | - | - | - |
| 1788682698 | 15° C | 60% | 1029.5 hPa | - | - | - | - |
| 1788682698 | 15° C | 60% | 1029.5 hPa | - | - | - | - |
* Rain since midnight (hover to see other rain measurements)
** Current wind speed in m/s (hover to see current wind gust speed)